Veuillez saisir l'adresse e-mail associée à votre compte d'utilisateur. Votre identifiant vous sera envoyé à cette adresse.

METAR TAF

[Source: ADDS]
METAR
LFCR 261700Z AUTO 27014KT 9999 SCT034 BKN042 BKN056 05/M01 Q1016 TEMPO 30020G32KT =
LFCR 261700Z 2618/2718 28014KT 9999 SCT035 BKN045 BECMG 2620/2622 27008KT OVC007 BECMG 2700/2703 4000 -RADZ OVC003 TEMPO 2707/2718 20015G30KT 2000 RA OVC001 LFBA 261700Z AUTO 28012KT 9999 FEW038 BKN047 BKN240 09/05 Q1019 TEMPO 30015G25KT 4000 -SHRA BKN014 BKN025TCU =
LFBA 261700Z 2618/2703 30015KT 9999 BKN030 BECMG 2618/2620 24005KT PROB30 TEMPO 2618/2624 4000 SHRA BKN020TCU BECMG 2700/2701 21010KT BKN014 PROB30 TEMPO 2700/2703 4000 -RADZ OVC009 LFSL 261700Z AUTO 29015KT 250V310 9999 BKN043 BKN052 BKN068 08/00 Q1016 TEMPO 29015G25KT SCT040TCU =
LFSL 261700Z 2618/2703 27008KT 9999 SCT040 BECMG 2622/2624 BKN025 BECMG 2701/2703 20005KT 4000 -RA OVC003 LFLW 261700Z AUTO 29009KT 250V310 9999 ////// 04/M01 Q1015 =
LFLW 261400Z 2615/2624 30013KT 9999 SCT020TCU BKN040 PROB40 TEMPO 2615/2618 30015G25KT -SHRA BKN008 BECMG 2618/2620 BKN008 TEMPO 2620/2624 4000 -RADZ OVC004
TAF
LFCR 261700Z 2618/2718 28014KT 9999 SCT035 BKN045 BECMG 2620/2622 27008KT OVC007 BECMG 2700/2703 4000 -RADZ OVC003 TEMPO 2707/2718 20015G30KT 2000 RA OVC001 =
LFBA 261700Z 2618/2703 30015KT 9999 BKN030 BECMG 2618/2620 24005KT PROB30 TEMPO 2618/2624 4000 SHRA BKN020TCU BECMG 2700/2701 21010KT BKN014 PROB30 TEMPO 2700/2703 4000 -RADZ OVC009 =
LFSL 261700Z 2618/2703 27008KT 9999 SCT040 BECMG 2622/2624 BKN025 BECMG 2701/2703 20005KT 4000 -RA OVC003 =
LFLW 261400Z 2615/2624 30013KT 9999 SCT020TCU BKN040 PROB40 TEMPO 2615/2618 30015G25KT -SHRA BKN008 BECMG 2618/2620 BKN008 TEMPO 2620/2624 4000 -RADZ OVC004 =
SR / SS: 06:37 / 17:37 UTC (LFCC 2020-02-26)